createdAt,value
2019-04-10T00:00:19.118Z,64.47
2019-04-10T00:04:21.075Z,63.83
2019-04-10T00:08:22.142Z,64.83
2019-04-10T00:12:23.377Z,61.27
2019-04-10T00:16:24.521Z,67.33
2019-04-10T00:20:26.721Z,59.00
2019-04-10T00:24:28.171Z,61.30
2019-04-10T00:28:29.652Z,53.43
2019-04-10T00:32:30.585Z,59.67
2019-04-10T00:36:31.488Z,51.77
2019-04-10T00:40:33.232Z,56.80
2019-04-10T00:44:35.403Z,50.27
2019-04-10T00:48:36.347Z,48.77
2019-04-10T00:52:37.199Z,50.23
2019-04-10T00:56:38.960Z,46.23
2019-04-10T01:00:39.856Z,46.07
2019-04-10T01:04:40.782Z,44.67
2019-04-10T01:08:42.738Z,48.87
2019-04-10T01:12:44.075Z,43.97
2019-04-10T01:16:45.098Z,40.53
2019-04-10T01:20:46.020Z,39.83
2019-04-10T01:24:48.016Z,41.13
2019-04-10T01:28:49.227Z,41.80
2019-04-10T01:32:50.373Z,39.10
2019-04-10T01:36:52.111Z,38.67
2019-04-10T01:40:53.303Z,35.80
2019-04-10T01:44:55.051Z,38.13
2019-04-10T01:48:57.435Z,36.37
2019-04-10T01:52:59.568Z,34.47
2019-04-10T01:57:00.622Z,36.10
2019-04-10T02:01:03.912Z,34.60
2019-04-10T02:05:06.157Z,34.87
2019-04-10T02:09:08.184Z,33.50
2019-04-10T02:13:09.428Z,33.40
2019-04-10T02:17:10.584Z,31.87
2019-04-10T02:21:11.628Z,31.10
2019-04-10T02:25:13.788Z,32.87
2019-04-10T02:29:15.574Z,33.73
2019-04-10T02:33:17.830Z,33.17
2019-04-10T02:37:19.255Z,31.03
2019-04-10T02:41:21.603Z,32.00
2019-04-10T02:45:24.033Z,31.80
2019-04-10T02:49:25.238Z,32.07
2019-04-10T02:53:27.511Z,30.80
2019-04-10T02:57:29.460Z,31.63
2019-04-10T03:01:31.560Z,32.20
2019-04-10T03:05:34.474Z,30.93
2019-04-10T03:09:49.655Z,27.93
2019-04-10T03:13:38.693Z,29.23
2019-04-10T03:17:40.095Z,28.90
2019-04-10T03:21:41.234Z,29.17
2019-04-10T03:25:42.095Z,28.10
2019-04-10T03:29:44.873Z,30.43
2019-04-10T03:33:54.156Z,29.13
2019-04-10T03:37:53.556Z,29.80
2019-04-10T03:41:54.649Z,34.40
2019-04-10T03:45:55.711Z,28.70
2019-04-10T03:49:56.592Z,28.43
2019-04-10T03:53:58.417Z,29.50
2019-04-10T03:57:59.412Z,28.97
2019-04-10T04:02:00.311Z,28.37
2019-04-10T04:06:01.624Z,27.93
2019-04-10T04:10:05.182Z,27.63
2019-04-10T04:14:06.248Z,27.63
2019-04-10T04:18:07.251Z,29.17
2019-04-10T04:22:08.332Z,29.77
2019-04-10T04:26:09.252Z,28.03
2019-04-10T04:30:10.573Z,28.70
2019-04-10T04:34:12.257Z,29.67
2019-04-10T04:38:13.454Z,29.83
2019-04-10T04:42:14.903Z,29.70
2019-04-10T04:46:16.199Z,32.80
2019-04-10T04:50:17.819Z,29.17
2019-04-10T04:54:19.158Z,28.77
2019-04-10T04:58:20.362Z,34.07
2019-04-10T05:02:21.968Z,30.10
2019-04-10T05:06:23.025Z,28.47
2019-04-10T05:10:25.209Z,28.83
2019-04-10T05:14:27.208Z,31.27
2019-04-10T05:18:28.218Z,35.23
2019-04-10T05:22:29.091Z,37.37
2019-04-10T05:26:30.051Z,39.97
2019-04-10T05:30:31.397Z,32.03
2019-04-10T05:34:32.421Z,31.87
2019-04-10T05:38:33.425Z,29.90
2019-04-10T05:42:35.256Z,31.43
2019-04-10T05:46:36.766Z,32.73
2019-04-10T05:50:37.884Z,32.57
2019-04-10T05:54:39.541Z,32.83
2019-04-10T05:58:40.885Z,31.87
2019-04-10T06:02:41.965Z,33.13
2019-04-10T06:06:44.007Z,33.30
2019-04-10T06:10:45.707Z,32.60
2019-04-10T06:14:46.692Z,33.13
2019-04-10T06:18:47.570Z,33.57
2019-04-10T06:22:48.449Z,30.73
2019-04-10T06:26:50.118Z,35.03
2019-04-10T06:30:52.279Z,32.97
2019-04-10T06:34:53.382Z,34.70
2019-04-10T06:38:55.103Z,34.70
2019-04-10T06:42:56.917Z,32.83
2019-04-10T06:46:59.949Z,33.53
2019-04-10T06:51:02.068Z,34.07
2019-04-10T06:55:05.032Z,32.50
2019-04-10T06:59:06.654Z,31.73
2019-04-10T07:03:08.576Z,31.57
2019-04-10T07:07:12.941Z,30.87
2019-04-10T07:11:13.489Z,27.63
2019-04-10T07:15:19.143Z,29.83
2019-04-10T07:19:17.804Z,29.23
2019-04-10T07:23:24.139Z,35.40
2019-04-10T07:27:21.849Z,29.33
2019-04-10T07:31:23.477Z,33.23
2019-04-10T07:35:25.653Z,29.17
2019-04-10T07:39:29.504Z,28.90
2019-04-10T07:43:30.656Z,30.07
2019-04-10T07:47:31.739Z,27.60
2019-04-10T07:51:32.629Z,26.63
2019-04-10T07:55:33.504Z,29.47
2019-04-10T07:59:35.260Z,30.83
2019-04-10T08:03:37.403Z,28.93
2019-04-10T08:07:39.291Z,26.27
2019-04-10T08:11:41.470Z,30.07
2019-04-10T08:15:43.371Z,27.43
2019-04-10T08:19:45.264Z,24.43
2019-04-10T08:23:46.512Z,26.17
2019-04-10T08:27:47.591Z,25.70
2019-04-10T08:31:48.596Z,27.43
2019-04-10T08:35:49.590Z,26.60
2019-04-10T08:39:51.385Z,26.77
2019-04-10T08:43:54.440Z,28.07
2019-04-10T08:47:55.570Z,29.57
2019-04-10T08:51:56.469Z,28.87
2019-04-10T08:55:58.794Z,29.13
2019-04-10T09:00:00.406Z,44.07
2019-04-10T09:04:01.606Z,25.77
2019-04-10T09:08:02.605Z,27.27
2019-04-10T09:12:03.587Z,30.10
2019-04-10T09:16:04.622Z,25.47
2019-04-10T09:20:06.651Z,27.20
2019-04-10T09:24:08.173Z,25.70
2019-04-10T09:28:10.464Z,26.97
2019-04-10T09:32:12.576Z,26.10
2019-04-10T09:36:13.549Z,27.40
2019-04-10T09:40:14.576Z,26.77
2019-04-10T09:44:15.505Z,26.03
2019-04-10T09:48:16.615Z,23.53
2019-04-10T09:52:18.679Z,24.13
2019-04-10T09:56:19.816Z,22.83
2019-04-10T10:00:21.706Z,23.77
2019-04-10T10:04:23.592Z,24.93
2019-04-10T10:08:24.865Z,21.97
2019-04-10T10:12:25.810Z,22.83
2019-04-10T10:16:27.265Z,23.30
2019-04-10T10:20:30.744Z,22.67
2019-04-10T10:24:32.878Z,23.07
2019-04-10T10:28:33.918Z,22.63
2019-04-10T10:32:35.134Z,22.50
2019-04-10T10:36:41.549Z,23.17
2019-04-10T10:40:39.440Z,24.90
2019-04-10T10:44:40.599Z,21.93
2019-04-10T10:48:42.031Z,19.90
2019-04-10T10:52:43.812Z,21.27
2019-04-10T10:56:44.955Z,20.90
2019-04-10T11:00:46.034Z,22.10
2019-04-10T11:04:47.509Z,20.80
2019-04-10T11:08:48.589Z,26.03
2019-04-10T11:12:50.721Z,20.93
2019-04-10T11:16:53.708Z,26.13
2019-04-10T11:21:00.720Z,20.93
2019-04-10T11:24:57.620Z,21.33
2019-04-10T11:28:58.676Z,19.47
2019-04-10T11:33:00.062Z,21.83
2019-04-10T11:37:16.606Z,20.90
2019-04-10T11:41:06.366Z,22.97
2019-04-10T11:45:10.246Z,22.00
2019-04-10T11:49:14.336Z,23.73
2019-04-10T11:53:17.279Z,23.23
2019-04-10T11:57:19.814Z,24.80
2019-04-10T12:01:21.619Z,23.63
2019-04-10T12:05:25.244Z,23.57
2019-04-10T12:10:08.237Z,21.87
2019-04-10T12:13:28.317Z,29.60
2019-04-10T12:17:29.780Z,32.23
2019-04-10T12:21:31.611Z,25.00
2019-04-10T12:25:32.692Z,23.13
2019-04-10T12:29:33.617Z,22.40
2019-04-10T12:33:35.815Z,23.17
2019-04-10T12:37:37.191Z,21.17
2019-04-10T12:41:39.238Z,22.17
2019-04-10T12:45:40.732Z,20.43
2019-04-10T12:49:41.603Z,21.83
2019-04-10T12:53:43.533Z,23.37
2019-04-10T12:57:45.436Z,22.80
2019-04-10T13:01:47.028Z,23.23
2019-04-10T13:05:47.970Z,28.33
2019-04-10T13:09:48.872Z,22.57
2019-04-10T13:13:51.217Z,23.73
2019-04-10T13:17:53.160Z,26.50
2019-04-10T13:21:54.174Z,23.43
2019-04-10T13:25:59.817Z,23.20
2019-04-10T13:29:57.976Z,22.70
2019-04-10T13:33:58.861Z,26.00
2019-04-10T13:38:00.915Z,22.93
2019-04-10T13:42:03.055Z,21.80
2019-04-10T13:46:04.665Z,23.37
2019-04-10T13:50:06.601Z,21.50
2019-04-10T13:54:07.702Z,20.67
2019-04-10T13:58:08.891Z,22.10
2019-04-10T14:02:12.973Z,23.20
2019-04-10T14:06:14.269Z,23.10
2019-04-10T14:10:15.788Z,22.30
2019-04-10T14:14:16.863Z,21.73
2019-04-10T14:18:18.564Z,23.80
2019-04-10T14:22:19.773Z,21.77
2019-04-10T14:26:26.630Z,22.93
2019-04-10T14:30:33.493Z,23.83
2019-04-10T14:34:34.753Z,23.57
2019-04-10T14:38:35.934Z,24.17
2019-04-10T14:42:38.262Z,21.07
2019-04-10T14:46:40.071Z,20.57
2019-04-10T14:50:41.997Z,23.07
2019-04-10T14:54:43.939Z,20.20
2019-04-10T14:58:57.703Z,23.70
2019-04-10T15:03:00.058Z,21.93
2019-04-10T15:07:01.803Z,22.27
2019-04-10T15:11:02.951Z,19.70
2019-04-10T15:15:04.835Z,28.33
2019-04-10T15:19:05.702Z,24.17
2019-04-10T15:23:07.741Z,21.87
2019-04-10T15:27:09.242Z,20.33
2019-04-10T15:31:10.995Z,21.13
2019-04-10T15:35:12.600Z,21.70
2019-04-10T15:39:31.399Z,32.77
2019-04-10T15:43:29.773Z,20.53
2019-04-10T15:47:48.794Z,21.90
2019-04-10T15:51:49.737Z,23.50
2019-04-10T15:55:51.664Z,21.40
2019-04-10T15:59:52.811Z,20.13
2019-04-10T16:03:55.743Z,20.90
2019-04-10T16:07:57.154Z,22.03
2019-04-10T16:12:00.478Z,23.57
2019-04-10T16:16:07.207Z,22.97
2019-04-10T16:20:30.545Z,20.80
2019-04-10T16:24:31.524Z,21.80
2019-04-10T16:28:33.560Z,22.43
2019-04-10T16:32:37.006Z,23.17
2019-04-10T16:36:38.367Z,23.53
2019-04-10T16:40:40.452Z,22.97
2019-04-10T16:44:42.324Z,20.90
2019-04-10T16:48:44.375Z,19.23
2019-04-10T16:52:45.500Z,19.60
2019-04-10T16:56:48.578Z,19.20
2019-04-10T17:00:49.982Z,19.43
2019-04-10T17:04:58.818Z,18.43
2019-04-10T17:09:08.965Z,18.77
2019-04-10T17:13:12.131Z,19.80
2019-04-10T17:17:13.215Z,19.13
2019-04-10T17:21:15.175Z,23.27
2019-04-10T17:25:16.295Z,20.80
2019-04-10T17:29:17.785Z,20.10
2019-04-10T17:33:18.806Z,20.87
2019-04-10T17:37:21.278Z,20.40
2019-04-10T17:41:23.851Z,20.03
2019-04-10T17:45:26.253Z,21.47
2019-04-10T17:49:29.694Z,20.83
2019-04-10T17:53:31.529Z,21.23
2019-04-10T17:57:38.371Z,21.50
2019-04-10T18:01:36.724Z,20.13
2019-04-10T18:05:39.131Z,23.80
2019-04-10T18:09:40.962Z,20.20
2019-04-10T18:13:42.779Z,20.37
2019-04-10T18:17:44.012Z,20.37
2019-04-10T18:21:45.870Z,19.60
2019-04-10T18:25:47.026Z,22.90
2019-04-10T18:29:48.091Z,21.30
2019-04-10T18:33:49.109Z,20.72
2019-04-10T18:37:50.087Z,20.97
2019-04-10T18:41:51.962Z,19.23
2019-04-10T18:46:03.332Z,22.37
2019-04-10T18:49:56.043Z,19.50
2019-04-10T18:53:57.601Z,21.10
2019-04-10T18:58:03.264Z,24.43
2019-04-10T19:02:25.447Z,19.73
2019-04-10T19:06:32.192Z,19.23
2019-04-10T19:10:34.604Z,20.53
2019-04-10T19:14:37.118Z,21.70
2019-04-10T19:18:39.491Z,20.10
2019-04-10T19:22:40.872Z,21.33
2019-04-10T19:26:43.225Z,19.40
2019-04-10T19:30:49.134Z,19.20
2019-04-10T19:34:50.260Z,19.60
2019-04-10T19:38:51.759Z,19.67
2019-04-10T19:42:53.450Z,19.45
2019-04-10T19:46:56.331Z,19.77
2019-04-10T19:50:57.502Z,19.87
2019-04-10T19:54:59.662Z,19.73
2019-04-10T19:59:00.799Z,21.80
2019-04-10T20:03:01.940Z,20.67
2019-04-10T20:07:03.058Z,20.27
2019-04-10T20:11:04.132Z,19.43
2019-04-10T20:15:06.875Z,19.70
2019-04-10T20:19:07.764Z,22.00
2019-04-10T20:23:09.692Z,20.07
2019-04-10T20:27:11.995Z,22.23
2019-04-10T20:31:15.311Z,22.37
2019-04-10T20:35:16.349Z,20.33
2019-04-10T20:39:17.489Z,20.87
2019-04-10T20:43:18.603Z,19.70
2019-04-10T20:47:22.525Z,23.20
2019-04-10T20:51:24.860Z,22.10
2019-04-10T20:55:25.905Z,25.10
2019-04-10T20:59:26.852Z,22.47
2019-04-10T21:03:27.772Z,27.83
2019-04-10T21:07:29.837Z,27.07
2019-04-10T21:11:31.367Z,21.40
2019-04-10T21:15:33.347Z,22.93
2019-04-10T21:19:35.386Z,24.97
2019-04-10T21:23:36.460Z,23.13
2019-04-10T21:27:37.670Z,23.00
2019-04-10T21:31:59.048Z,24.77
2019-04-10T21:36:01.804Z,25.83
2019-04-10T21:40:04.039Z,26.37
2019-04-10T21:44:05.015Z,25.93
2019-04-10T21:48:08.515Z,24.90
2019-04-10T21:52:09.828Z,24.97
2019-04-10T21:56:10.779Z,22.90
2019-04-10T22:00:12.360Z,25.97
2019-04-10T22:04:14.644Z,27.20
2019-04-10T22:08:17.680Z,26.43
2019-04-10T22:12:25.900Z,27.47
2019-04-10T22:16:26.255Z,26.23
2019-04-10T22:20:27.673Z,29.03
2019-04-10T22:24:29.838Z,27.07
2019-04-10T22:28:31.005Z,26.77
2019-04-10T22:32:33.078Z,27.27
2019-04-10T22:36:35.247Z,28.40
2019-04-10T22:40:36.363Z,28.77
2019-04-10T22:44:43.384Z,28.80
2019-04-10T22:48:41.530Z,27.80
2019-04-10T22:52:42.564Z,25.97
2019-04-10T22:56:43.437Z,30.80
2019-04-10T23:00:44.449Z,30.03
2019-04-10T23:04:45.309Z,28.97
2019-04-10T23:08:46.174Z,28.33
2019-04-10T23:12:54.922Z,29.70
2019-04-10T23:16:50.510Z,30.60
2019-04-10T23:20:52.182Z,29.67
2019-04-10T23:24:54.078Z,27.30
2019-04-10T23:28:55.932Z,30.00
2019-04-10T23:32:56.902Z,30.07
2019-04-10T23:36:58.327Z,29.03
2019-04-10T23:40:59.587Z,28.37
2019-04-10T23:45:01.598Z,27.80
2019-04-10T23:49:03.911Z,30.97
2019-04-10T23:53:04.970Z,31.47
2019-04-10T23:57:05.808Z,34.10
